createdAt,value
2022-11-04T00:00:30.098Z,37.60
2022-11-04T00:02:59.444Z,42.95
2022-11-04T00:05:29.167Z,44.65
2022-11-04T00:08:17.472Z,38.38
2022-11-04T00:11:05.832Z,48.13
2022-11-04T00:13:34.535Z,42.75
2022-11-04T00:16:23.337Z,42.38
2022-11-04T00:18:52.237Z,55.35
2022-11-04T00:21:40.846Z,51.58
2022-11-04T00:24:35.112Z,56.40
2022-11-04T00:27:23.739Z,51.35
2022-11-04T00:29:52.502Z,54.42
2022-11-04T00:32:40.950Z,52.40
2022-11-04T00:35:10.736Z,54.30
2022-11-04T00:37:42.220Z,51.55
2022-11-04T00:40:13.149Z,42.00
2022-11-04T00:42:43.967Z,46.05
2022-11-04T00:45:12.829Z,45.15
2022-11-04T00:47:41.595Z,41.33
2022-11-04T00:50:10.793Z,40.55
2022-11-04T00:52:39.482Z,39.22
2022-11-04T00:55:08.724Z,38.58
2022-11-04T00:57:37.796Z,36.22
2022-11-04T01:00:08.167Z,45.78
2022-11-04T01:02:37.006Z,46.10
2022-11-04T01:05:06.066Z,49.83
2022-11-04T01:07:37.343Z,33.72
2022-11-04T01:10:09.068Z,34.88
2022-11-04T01:12:38.152Z,36.45
2022-11-04T01:15:07.439Z,37.60
2022-11-04T01:17:36.177Z,34.90
2022-11-04T01:20:05.041Z,42.25
2022-11-04T01:22:33.770Z,35.80
2022-11-04T01:25:02.576Z,37.60
2022-11-04T01:27:31.317Z,40.58
2022-11-04T01:30:00.234Z,37.28
2022-11-04T01:32:30.006Z,35.92
2022-11-04T01:34:58.751Z,35.97
2022-11-04T01:37:28.096Z,32.78
2022-11-04T01:39:57.108Z,35.85
2022-11-04T01:42:26.086Z,35.78
2022-11-04T01:44:59.188Z,35.53
2022-11-04T01:47:41.025Z,35.40
2022-11-04T01:50:16.081Z,43.50
2022-11-04T01:52:52.551Z,41.67
2022-11-04T01:55:28.901Z,39.33
2022-11-04T01:58:02.298Z,50.80
2022-11-04T02:00:31.637Z,35.83
2022-11-04T02:03:07.426Z,35.00
2022-11-04T02:05:36.543Z,33.85
2022-11-04T02:08:08.263Z,28.55
2022-11-04T02:10:39.290Z,28.58
2022-11-04T02:13:08.456Z,22.48
2022-11-04T02:15:45.186Z,26.23
2022-11-04T02:18:37.826Z,23.30
2022-11-04T02:21:08.478Z,26.30
2022-11-04T02:24:03.253Z,24.48
2022-11-04T02:27:06.954Z,23.45
2022-11-04T02:32:22.934Z,27.75
2022-11-04T02:35:15.636Z,25.88
2022-11-04T02:37:57.398Z,23.23
2022-11-04T02:40:51.502Z,27.05
2022-11-04T02:43:25.683Z,26.75
2022-11-04T02:46:01.596Z,21.38
2022-11-04T02:48:54.685Z,27.25
2022-11-04T02:51:31.021Z,23.48
2022-11-04T02:54:04.616Z,27.85
2022-11-04T02:56:36.123Z,22.70
2022-11-04T02:59:09.076Z,26.05
2022-11-04T03:04:15.801Z,26.67
2022-11-04T03:06:48.478Z,26.08
2022-11-04T03:09:18.462Z,23.55
2022-11-04T03:11:53.347Z,27.15
2022-11-04T03:14:28.968Z,22.80
2022-11-04T03:17:02.810Z,20.45
2022-11-04T03:19:39.272Z,24.67
2022-11-04T03:22:16.885Z,20.65
2022-11-04T03:24:47.509Z,20.65
2022-11-04T03:27:26.537Z,23.90
2022-11-04T03:30:04.116Z,19.55
2022-11-04T03:32:54.094Z,24.13
2022-11-04T03:35:23.310Z,23.08
2022-11-04T03:37:52.250Z,21.15
2022-11-04T03:40:23.547Z,19.40
2022-11-04T03:43:00.713Z,22.13
2022-11-04T03:45:29.874Z,25.02
2022-11-04T03:47:59.451Z,20.20
2022-11-04T03:50:32.249Z,19.80
2022-11-04T03:55:50.447Z,19.55
2022-11-04T03:58:46.751Z,21.35
2022-11-04T04:01:31.699Z,17.55
2022-11-04T04:04:21.741Z,20.42
2022-11-04T04:06:55.133Z,18.52
2022-11-04T04:09:31.708Z,19.75
2022-11-04T04:12:09.511Z,19.58
2022-11-04T04:14:45.239Z,22.13
2022-11-04T04:17:37.738Z,17.35
2022-11-04T04:20:14.722Z,16.63
2022-11-04T04:22:50.552Z,16.10
2022-11-04T04:25:44.711Z,24.33
2022-11-04T04:28:17.129Z,18.05
2022-11-04T04:30:48.414Z,16.95
2022-11-04T04:33:20.288Z,19.92
2022-11-04T04:35:56.702Z,19.63
2022-11-04T04:38:49.095Z,19.08
2022-11-04T04:41:42.877Z,27.97
2022-11-04T04:44:38.054Z,16.58
2022-11-04T04:47:08.271Z,19.13
2022-11-04T04:49:37.197Z,16.95
2022-11-04T04:52:08.992Z,16.63
2022-11-04T04:54:37.723Z,16.38
2022-11-04T04:57:06.447Z,13.43
2022-11-04T04:59:35.785Z,17.80
2022-11-04T05:02:05.089Z,13.82
2022-11-04T05:04:33.933Z,16.35
2022-11-04T05:07:03.595Z,16.23
2022-11-04T05:09:32.256Z,17.77
2022-11-04T05:12:01.101Z,16.60
2022-11-04T05:14:31.023Z,14.43
2022-11-04T05:17:00.014Z,16.23
2022-11-04T05:19:28.859Z,15.27
2022-11-04T05:21:58.024Z,14.25
2022-11-04T05:24:27.538Z,17.05
2022-11-04T05:26:56.421Z,13.77
2022-11-04T05:29:25.132Z,15.10
2022-11-04T05:31:53.868Z,22.20
2022-11-04T05:34:22.663Z,16.27
2022-11-04T05:36:52.031Z,16.42
2022-11-04T05:39:20.811Z,16.40
2022-11-04T05:41:49.668Z,13.18
2022-11-04T05:44:18.453Z,13.63
2022-11-04T05:46:47.231Z,13.35
2022-11-04T05:49:16.006Z,14.43
2022-11-04T05:51:45.516Z,16.42
2022-11-04T05:54:14.801Z,14.52
2022-11-04T05:56:43.660Z,15.13
2022-11-04T05:59:12.405Z,16.90
2022-11-04T06:01:44.064Z,17.73
2022-11-04T06:04:18.952Z,17.77
2022-11-04T06:06:47.970Z,16.75
2022-11-04T06:09:16.793Z,16.48
2022-11-04T06:11:46.364Z,16.42
2022-11-04T06:14:18.788Z,15.27
2022-11-04T06:16:47.757Z,14.95
2022-11-04T06:19:16.628Z,17.90
2022-11-04T06:21:45.374Z,16.80
2022-11-04T06:24:14.257Z,15.55
2022-11-04T06:26:43.234Z,16.20
2022-11-04T06:29:11.947Z,16.23
2022-11-04T06:31:40.743Z,13.05
2022-11-04T06:34:09.517Z,13.25
2022-11-04T06:36:38.308Z,16.02
2022-11-04T06:39:07.148Z,13.80
2022-11-04T06:41:36.030Z,15.13
2022-11-04T06:44:04.836Z,16.17
2022-11-04T06:46:41.136Z,15.05
2022-11-04T06:49:15.473Z,15.77
2022-11-04T06:51:44.950Z,15.10
2022-11-04T06:54:14.364Z,17.20
2022-11-04T06:56:43.845Z,15.57
2022-11-04T06:59:21.851Z,13.77
2022-11-04T07:01:53.139Z,14.68
2022-11-04T07:04:22.766Z,16.30
2022-11-04T07:06:51.539Z,18.35
2022-11-04T07:09:20.309Z,14.98
2022-11-04T07:11:49.587Z,18.63
2022-11-04T07:14:18.300Z,17.15
2022-11-04T07:16:47.117Z,13.88
2022-11-04T07:19:16.187Z,15.82
2022-11-04T07:21:45.201Z,14.98
2022-11-04T07:24:13.902Z,15.05
2022-11-04T07:26:43.575Z,15.00
2022-11-04T07:29:12.406Z,16.73
2022-11-04T07:31:41.156Z,20.40
2022-11-04T07:34:10.597Z,20.60
2022-11-04T07:36:39.397Z,13.15
2022-11-04T07:39:08.625Z,15.43
2022-11-04T07:41:37.450Z,15.60
2022-11-04T07:44:07.358Z,25.33
2022-11-04T07:46:36.105Z,13.68
2022-11-04T07:49:05.202Z,19.25
2022-11-04T07:51:34.107Z,13.55
2022-11-04T07:54:03.004Z,18.65
2022-11-04T07:56:31.777Z,17.50
2022-11-04T07:59:01.155Z,18.98
2022-11-04T08:01:29.934Z,12.88
2022-11-04T08:04:02.268Z,14.88
2022-11-04T08:06:33.275Z,13.15
2022-11-04T08:09:02.167Z,15.18
2022-11-04T08:11:30.947Z,17.83
2022-11-04T08:13:59.691Z,19.98
2022-11-04T08:16:33.950Z,18.17
2022-11-04T08:19:03.518Z,14.25
2022-11-04T08:21:34.084Z,13.10
2022-11-04T08:24:07.056Z,14.63
2022-11-04T08:26:35.871Z,16.60
2022-11-04T08:29:09.280Z,14.63
2022-11-04T08:31:38.382Z,17.23
2022-11-04T08:34:09.755Z,16.83
2022-11-04T08:37:00.011Z,15.38
2022-11-04T08:39:29.210Z,12.82
2022-11-04T08:41:58.774Z,15.55
2022-11-04T08:44:27.712Z,25.92
2022-11-04T08:46:56.511Z,17.45
2022-11-04T08:49:25.250Z,17.08
2022-11-04T08:52:02.533Z,14.77
2022-11-04T08:54:31.450Z,12.43
2022-11-04T08:57:01.114Z,19.88
2022-11-04T08:59:31.126Z,20.02
2022-11-04T09:01:59.922Z,15.30
2022-11-04T09:04:28.781Z,14.00
2022-11-04T09:06:59.304Z,19.15
2022-11-04T09:09:28.726Z,13.27
2022-11-04T09:11:57.571Z,16.42
2022-11-04T09:14:26.657Z,14.90
2022-11-04T09:16:56.842Z,15.35
2022-11-04T09:19:25.710Z,13.60
2022-11-04T09:21:54.750Z,14.70
2022-11-04T09:24:24.185Z,16.00
2022-11-04T09:26:53.081Z,14.35
2022-11-04T09:29:21.810Z,17.48
2022-11-04T09:31:51.294Z,15.38
2022-11-04T09:34:22.868Z,18.83
2022-11-04T09:36:51.558Z,16.15
2022-11-04T09:39:20.448Z,38.80
2022-11-04T09:42:19.095Z,29.02
2022-11-04T09:45:26.530Z,19.67
2022-11-04T09:47:59.838Z,19.35
2022-11-04T09:50:33.233Z,27.27
2022-11-04T09:53:10.222Z,31.02
2022-11-04T09:56:05.295Z,26.08
2022-11-04T09:58:39.658Z,23.15
2022-11-04T10:01:47.912Z,25.33
2022-11-04T10:04:52.158Z,32.42
2022-11-04T10:07:28.871Z,33.35
2022-11-04T10:10:02.888Z,36.35
2022-11-04T10:12:55.780Z,31.55
2022-11-04T10:15:32.775Z,26.95
2022-11-04T10:18:18.986Z,31.40
2022-11-04T10:21:08.922Z,28.27
2022-11-04T10:23:47.346Z,29.50
2022-11-04T10:26:29.321Z,25.73
2022-11-04T10:29:05.707Z,31.40
2022-11-04T10:31:38.005Z,25.70
2022-11-04T10:34:14.128Z,28.77
2022-11-04T10:36:43.744Z,25.00
2022-11-04T10:39:28.359Z,29.77
2022-11-04T10:41:59.185Z,25.98
2022-11-04T10:44:31.249Z,24.67
2022-11-04T10:47:01.860Z,25.45
2022-11-04T10:49:39.061Z,25.35
2022-11-04T10:52:09.747Z,27.10
2022-11-04T10:54:49.227Z,24.10
2022-11-04T10:57:23.047Z,29.00
2022-11-04T10:59:55.711Z,30.80
2022-11-04T11:02:41.852Z,34.10
2022-11-04T11:05:26.864Z,44.17
2022-11-04T11:07:59.263Z,46.03
2022-11-04T11:10:31.948Z,54.20
2022-11-04T11:13:04.498Z,56.13
2022-11-04T11:15:36.581Z,44.83
2022-11-04T11:18:11.298Z,50.63
2022-11-04T11:20:41.970Z,46.20
2022-11-04T11:23:38.625Z,45.33
2022-11-04T11:26:13.691Z,45.38
2022-11-04T11:28:43.257Z,43.08
2022-11-04T11:31:24.377Z,37.70
2022-11-04T11:33:57.240Z,35.03
2022-11-04T11:39:06.836Z,37.05
2022-11-04T11:41:53.474Z,34.40
2022-11-04T11:44:45.435Z,38.58
2022-11-04T11:47:23.691Z,36.22
2022-11-04T11:50:16.910Z,37.58
2022-11-04T11:55:21.929Z,43.08
2022-11-04T12:01:23.926Z,33.22
2022-11-04T12:09:43.668Z,33.50
2022-11-04T12:12:17.887Z,32.70
2022-11-04T12:15:13.652Z,31.13
2022-11-04T12:17:52.897Z,32.00
2022-11-04T12:21:01.804Z,30.50
2022-11-04T12:23:38.118Z,29.58
2022-11-04T12:26:07.826Z,34.03
2022-11-04T12:28:50.717Z,40.38
2022-11-04T12:31:35.243Z,34.20
2022-11-04T12:34:38.750Z,27.73
2022-11-04T12:40:05.918Z,30.58
2022-11-04T12:42:42.829Z,28.88
2022-11-04T12:45:19.958Z,28.80
2022-11-04T12:47:50.178Z,29.65
2022-11-04T12:50:41.875Z,31.40
2022-11-04T12:53:44.051Z,37.33
2022-11-04T12:56:15.529Z,31.45
2022-11-04T12:59:02.559Z,32.05
2022-11-04T13:01:40.507Z,28.08
2022-11-04T13:04:21.481Z,32.22
2022-11-04T13:06:56.401Z,33.88
2022-11-04T13:09:34.011Z,30.40
2022-11-04T13:12:16.369Z,34.03
2022-11-04T13:15:08.964Z,36.80
2022-11-04T13:17:41.059Z,34.72
2022-11-04T13:20:15.343Z,36.50
2022-11-04T13:22:50.127Z,34.58
2022-11-04T13:25:26.746Z,36.58
2022-11-04T13:27:55.840Z,46.63
2022-11-04T13:30:36.421Z,35.65
2022-11-04T13:33:26.262Z,35.08
2022-11-04T13:35:59.264Z,35.78
2022-11-04T13:38:42.775Z,37.92
2022-11-04T13:41:23.547Z,34.35
2022-11-04T13:44:04.258Z,33.55
2022-11-04T13:46:35.657Z,30.33
2022-11-04T13:49:15.511Z,32.17
2022-11-04T13:51:47.236Z,30.17
2022-11-04T13:54:37.453Z,34.40
2022-11-04T13:57:10.082Z,34.03
2022-11-04T13:59:39.515Z,31.00
2022-11-04T14:02:26.949Z,33.90
2022-11-04T14:04:57.215Z,34.65
2022-11-04T14:08:02.671Z,35.83
2022-11-04T14:10:51.783Z,31.88
2022-11-04T14:13:39.920Z,35.72
2022-11-04T14:16:28.695Z,32.05
2022-11-04T14:18:57.509Z,34.38
2022-11-04T14:21:30.454Z,41.55
2022-11-04T14:24:02.368Z,39.40
2022-11-04T14:26:44.186Z,32.83
2022-11-04T14:29:29.028Z,36.00
2022-11-04T14:32:01.513Z,36.85
2022-11-04T14:34:37.538Z,36.38
2022-11-04T14:37:23.369Z,42.13
2022-11-04T14:40:02.871Z,45.80
2022-11-04T14:42:51.624Z,43.22
2022-11-04T14:45:25.616Z,42.05
2022-11-04T14:48:01.615Z,42.63
2022-11-04T14:50:30.772Z,47.05
2022-11-04T14:53:03.391Z,47.25
2022-11-04T14:55:33.797Z,45.35
2022-11-04T14:58:24.399Z,45.97
2022-11-04T15:00:57.162Z,44.00
2022-11-04T15:06:40.577Z,50.00
2022-11-04T15:09:30.533Z,45.80
2022-11-04T15:12:33.981Z,43.22
2022-11-04T15:15:02.848Z,45.97
2022-11-04T15:17:34.877Z,49.17
2022-11-04T15:20:05.686Z,50.43
2022-11-04T15:22:34.388Z,48.25
2022-11-04T15:25:06.839Z,41.67
2022-11-04T15:27:37.047Z,43.47
2022-11-04T15:30:20.488Z,48.03
2022-11-04T15:33:05.427Z,42.22
2022-11-04T15:35:35.350Z,43.03
2022-11-04T15:38:04.887Z,44.33
2022-11-04T15:40:36.828Z,41.75
2022-11-04T15:43:07.817Z,44.97
2022-11-04T15:45:52.306Z,44.88
2022-11-04T15:48:27.342Z,44.72
2022-11-04T15:51:01.405Z,44.50
2022-11-04T15:53:30.185Z,49.45
2022-11-04T15:55:58.962Z,42.33
2022-11-04T15:58:28.930Z,44.20
2022-11-04T16:00:58.092Z,46.45
2022-11-04T16:03:27.002Z,45.42
2022-11-04T16:06:07.879Z,45.00
2022-11-04T16:08:36.764Z,47.70
2022-11-04T16:11:16.250Z,40.40
2022-11-04T16:13:46.012Z,42.13
2022-11-04T16:16:25.263Z,38.97
2022-11-04T16:18:56.968Z,42.28
2022-11-04T16:21:31.684Z,44.65
2022-11-04T16:24:03.593Z,41.85
2022-11-04T16:26:42.488Z,44.22
2022-11-04T16:29:19.767Z,40.80
2022-11-04T16:32:05.459Z,41.42
2022-11-04T16:34:34.250Z,39.63
2022-11-04T16:37:04.200Z,41.60
2022-11-04T16:39:33.657Z,37.88
2022-11-04T16:42:02.561Z,38.63
2022-11-04T16:44:31.415Z,38.75
2022-11-04T16:47:03.050Z,34.75
2022-11-04T16:49:32.006Z,40.63
2022-11-04T16:52:04.260Z,35.00
2022-11-04T16:54:33.028Z,39.15
2022-11-04T16:57:04.011Z,36.10
2022-11-04T17:03:27.948Z,37.58
2022-11-04T17:05:58.808Z,36.63
2022-11-04T17:08:28.470Z,38.05
2022-11-04T17:10:57.265Z,39.35
2022-11-04T17:13:26.093Z,34.42
2022-11-04T17:15:55.506Z,36.53
2022-11-04T17:18:24.486Z,37.53
2022-11-04T17:20:55.941Z,36.25
2022-11-04T17:23:25.685Z,34.88
2022-11-04T17:25:55.314Z,46.53
2022-11-04T17:28:24.307Z,37.63
2022-11-04T17:30:53.353Z,34.00
2022-11-04T17:33:22.310Z,34.45
2022-11-04T17:35:52.311Z,38.55
2022-11-04T17:38:21.474Z,38.30
2022-11-04T17:41:09.817Z,38.88
2022-11-04T17:43:58.138Z,36.53
2022-11-04T17:46:46.570Z,36.92
2022-11-04T17:49:17.956Z,35.67
2022-11-04T17:51:52.486Z,36.03
2022-11-04T17:54:22.529Z,36.58
2022-11-04T17:56:52.082Z,37.33
2022-11-04T17:59:21.398Z,36.70
2022-11-04T18:01:50.803Z,38.03
2022-11-04T18:04:22.775Z,37.65
2022-11-04T18:06:54.299Z,36.63
2022-11-04T18:09:24.827Z,38.00
2022-11-04T18:12:13.097Z,36.28
2022-11-04T18:14:45.853Z,35.63
2022-11-04T18:17:14.661Z,35.90
2022-11-04T18:19:43.838Z,37.17
2022-11-04T18:22:12.543Z,37.30
2022-11-04T18:24:41.898Z,36.03
2022-11-04T18:27:11.674Z,36.22
2022-11-04T18:29:40.402Z,37.83
2022-11-04T18:32:09.397Z,36.05
2022-11-04T18:34:38.252Z,38.25
2022-11-04T18:37:07.119Z,40.17
2022-11-04T18:39:35.896Z,38.30
2022-11-04T18:42:04.693Z,36.10
2022-11-04T18:44:34.026Z,39.30
2022-11-04T18:47:02.961Z,37.20
2022-11-04T18:49:31.793Z,37.60
2022-11-04T18:52:01.257Z,35.10
2022-11-04T18:54:30.047Z,37.90
2022-11-04T18:56:58.773Z,35.92
2022-11-04T18:59:27.563Z,35.67
2022-11-04T19:01:56.507Z,37.38
2022-11-04T19:04:25.316Z,35.47
2022-11-04T19:06:54.050Z,35.58
2022-11-04T19:12:32.537Z,36.13
2022-11-04T19:15:01.382Z,34.83
2022-11-04T19:17:30.044Z,36.53
2022-11-04T19:19:59.224Z,36.03
2022-11-04T19:22:28.195Z,34.75
2022-11-04T19:24:56.898Z,36.05
2022-11-04T19:27:25.965Z,36.35
2022-11-04T19:29:55.048Z,36.75
2022-11-04T19:32:23.752Z,36.58
2022-11-04T19:34:52.466Z,34.40
2022-11-04T19:37:21.268Z,36.35
2022-11-04T19:39:49.975Z,37.00
2022-11-04T19:42:38.297Z,35.55
2022-11-04T19:45:07.455Z,37.70
2022-11-04T19:47:36.255Z,36.55
2022-11-04T19:50:05.541Z,36.55
2022-11-04T19:52:34.266Z,37.30
2022-11-04T19:55:03.092Z,38.92
2022-11-04T19:57:32.747Z,37.25
2022-11-04T20:00:01.456Z,37.75
2022-11-04T20:02:30.343Z,37.92
2022-11-04T20:04:59.156Z,37.80
2022-11-04T20:07:27.867Z,37.38
2022-11-04T20:09:56.780Z,36.47
2022-11-04T20:12:45.041Z,37.30
2022-11-04T20:15:13.833Z,36.47
2022-11-04T20:17:42.644Z,36.90
2022-11-04T20:20:11.381Z,37.17
2022-11-04T20:22:40.142Z,35.58
2022-11-04T20:25:09.274Z,36.65
2022-11-04T20:27:38.573Z,35.03
2022-11-04T20:30:08.006Z,36.35
2022-11-04T20:32:36.863Z,38.67
2022-11-04T20:35:05.832Z,37.65
2022-11-04T20:37:34.572Z,35.67
2022-11-04T20:40:03.374Z,35.65
2022-11-04T20:42:33.405Z,36.42
2022-11-04T20:45:02.149Z,33.88
2022-11-04T20:47:32.189Z,34.28
2022-11-04T20:50:01.763Z,36.17
2022-11-04T20:52:31.359Z,35.58
2022-11-04T20:55:00.083Z,38.83
2022-11-04T20:57:28.896Z,36.55
2022-11-04T20:59:58.422Z,36.38
2022-11-04T21:02:27.632Z,38.15
2022-11-04T21:04:56.390Z,35.40
2022-11-04T21:07:25.487Z,37.42
2022-11-04T21:09:54.338Z,35.92
2022-11-04T21:12:23.054Z,35.85
2022-11-04T21:14:52.099Z,35.15
2022-11-04T21:17:20.788Z,36.70
2022-11-04T21:19:49.538Z,37.53
2022-11-04T21:22:18.198Z,35.72
2022-11-04T21:24:46.970Z,38.33
2022-11-04T21:27:15.743Z,39.03
2022-11-04T21:29:44.529Z,37.17
2022-11-04T21:32:13.224Z,38.13
2022-11-04T21:34:41.961Z,41.65
2022-11-04T21:37:10.642Z,38.38
2022-11-04T21:39:39.516Z,38.13
2022-11-04T21:42:08.479Z,38.88
2022-11-04T21:44:37.538Z,45.15
2022-11-04T21:47:06.298Z,46.38
2022-11-04T21:49:35.012Z,45.83
2022-11-04T21:52:03.783Z,43.63
2022-11-04T21:54:32.580Z,43.08
2022-11-04T21:57:01.319Z,43.30
2022-11-04T21:59:33.566Z,41.72
2022-11-04T22:02:02.374Z,42.40
2022-11-04T22:04:31.190Z,40.60
2022-11-04T22:06:59.917Z,40.58
2022-11-04T22:09:28.695Z,39.45
2022-11-04T22:11:57.457Z,40.88
2022-11-04T22:14:26.449Z,41.05
2022-11-04T22:16:55.294Z,39.15
2022-11-04T22:19:23.964Z,39.65
2022-11-04T22:21:53.020Z,43.10
2022-11-04T22:24:22.090Z,40.05
2022-11-04T22:26:51.252Z,40.92
2022-11-04T22:29:20.082Z,41.05
2022-11-04T22:31:48.786Z,41.88
2022-11-04T22:34:17.495Z,40.00
2022-11-04T22:36:46.276Z,39.85
2022-11-04T22:39:17.072Z,43.22
2022-11-04T22:41:47.253Z,42.17
2022-11-04T22:44:16.169Z,40.53
2022-11-04T22:46:44.856Z,41.05
2022-11-04T22:49:15.452Z,40.13
2022-11-04T22:51:44.208Z,42.42
2022-11-04T22:54:13.046Z,39.55
2022-11-04T22:56:41.940Z,40.72
2022-11-04T22:59:12.147Z,41.40
2022-11-04T23:01:41.837Z,41.40
2022-11-04T23:04:13.259Z,41.00
2022-11-04T23:06:42.517Z,42.22
2022-11-04T23:09:13.894Z,42.08
2022-11-04T23:12:02.515Z,43.13
2022-11-04T23:14:51.572Z,41.60
2022-11-04T23:17:43.044Z,41.50
2022-11-04T23:20:14.617Z,41.17
2022-11-04T23:23:03.489Z,40.20
2022-11-04T23:25:32.355Z,42.25
2022-11-04T23:28:20.641Z,43.15
2022-11-04T23:30:53.238Z,45.10
2022-11-04T23:33:41.556Z,44.75
2022-11-04T23:36:31.147Z,44.85
2022-11-04T23:38:59.831Z,46.50
2022-11-04T23:41:48.212Z,44.90
2022-11-04T23:44:36.487Z,45.97
2022-11-04T23:47:24.963Z,46.15
2022-11-04T23:50:13.313Z,47.53
2022-11-04T23:53:01.642Z,50.08
2022-11-04T23:55:50.048Z,47.47
2022-11-04T23:58:38.388Z,47.97
